Time;durP1;ratioP1;P1;durP2;ratioP2;P2;SDS_P1;SDS_P2;PMS_P1;PMS_P2;Temp;Humidity;BMP_temperature;BMP_pressure;BME280_temperature;BME280_humidity;BME280_pressure;Samples;Min_cycle;Max_cycle;Signal;HPM_P1;HPM_P2
2022/11/17 00:01:19;;;;;;;15.03;5.37;;;;;;;8.61;100.00;98706.81;5232267;28;20030;-73
2022/11/17 00:03:50;;;;;;;12.53;5.20;;;;;;;8.45;100.00;98682.03;5215976;28;20469;-71
2022/11/17 00:06:22;;;;;;;10.07;5.10;;;;;;;8.57;100.00;98705.47;5210810;28;20034;-72
2022/11/17 00:08:53;;;;;;;8.87;4.60;;;;;;;8.59;100.00;98682.63;5192714;28;20227;-71
2022/11/17 00:11:24;;;;;;;11.57;5.07;;;;;;;8.63;100.00;98676.22;5214579;28;20516;-69
2022/11/17 00:17:09;;;;;;;10.87;5.13;;;;;;;8.64;100.00;98664.81;5212289;28;20069;-71
2022/11/17 00:22:33;;;;;;;11.13;5.03;;;;;;;8.71;100.00;98665.09;5209860;28;20113;-73
2022/11/17 00:25:04;;;;;;;10.18;4.53;;;;;;;8.65;100.00;98670.84;5210626;28;20021;-71
2022/11/17 00:27:36;;;;;;;10.23;4.47;;;;;;;8.76;100.00;98647.25;5211360;28;20034;-70
2022/11/17 00:30:07;;;;;;;13.87;5.13;;;;;;;8.67;100.00;98632.41;5211120;28;20113;-69
2022/11/17 00:35:28;;;;;;;9.10;4.70;;;;;;;8.65;100.00;98614.28;5212078;28;20159;-71
2022/11/17 00:38:15;;;;;;;17.50;5.30;;;;;;;8.61;100.00;98615.50;5211241;28;20117;-70
2022/11/17 00:40:46;;;;;;;14.03;4.97;;;;;;;8.64;100.00;98617.03;5211582;28;20037;-70
2022/11/17 00:43:17;;;;;;;11.93;4.50;;;;;;;8.58;100.00;98613.16;5194145;28;20429;-70
2022/11/17 00:45:48;;;;;;;10.60;4.63;;;;;;;8.69;100.00;98605.19;5210215;28;20056;-69
2022/11/17 00:48:20;;;;;;;12.47;4.80;;;;;;;8.55;100.00;98603.81;5210943;28;20169;-70
2022/11/17 00:50:51;;;;;;;14.87;5.70;;;;;;;8.55;100.00;98600.38;5212164;28;20619;-69
2022/11/17 00:53:22;;;;;;;14.70;5.23;;;;;;;8.59;100.00;98593.94;5216646;28;20034;-70
2022/11/17 00:55:53;;;;;;;12.13;5.00;;;;;;;8.56;100.00;98588.97;5217269;28;20038;-72
2022/11/17 00:58:25;;;;;;;8.37;4.27;;;;;;;8.57;100.00;98580.22;5214562;28;20018;-71
2022/11/17 01:00:56;;;;;;;12.73;4.50;;;;;;;8.68;100.00;98590.53;5214581;28;20026;-72
2022/11/17 01:03:27;;;;;;;7.20;4.10;;;;;;;8.63;100.00;98590.09;5213838;28;20034;-71
2022/11/17 01:06:07;;;;;;;11.00;5.60;;;;;;;8.68;100.00;98590.53;5213365;28;20091;-72
2022/11/17 01:08:39;;;;;;;9.03;4.87;;;;;;;8.64;100.00;98555.22;5196174;28;20028;-71
2022/11/17 01:11:16;;;;;;;7.97;4.23;;;;;;;8.69;100.00;98576.50;5214561;28;20032;-71
2022/11/17 01:13:47;;;;;;;9.00;4.20;;;;;;;8.67;100.00;98549.75;5213942;28;20104;-73
2022/11/17 01:16:19;;;;;;;7.53;4.77;;;;;;;8.70;100.00;98549.47;5199451;28;20376;-71
2022/11/17 01:18:51;;;;;;;12.93;4.43;;;;;;;8.74;100.00;98542.19;5234723;28;20742;-71
2022/11/17 01:21:24;;;;;;;6.60;3.03;;;;;;;8.75;100.00;98541.22;5222158;28;20053;-71
2022/11/17 01:23:57;;;;;;;6.60;2.70;;;;;;;8.81;100.00;98545.06;5214313;28;20108;-71
2022/11/17 01:26:32;;;;;;;5.03;3.07;;;;;;;8.88;100.00;98548.78;5214808;28;20525;-71
2022/11/17 01:29:05;;;;;;;6.15;2.90;;;;;;;8.89;100.00;98546.97;5196256;28;20045;-71
2022/11/17 01:31:38;;;;;;;10.57;3.23;;;;;;;8.87;100.00;98533.22;5196384;28;20030;-71
2022/11/17 01:34:10;;;;;;;6.80;2.40;;;;;;;8.88;100.00;98551.38;5230547;28;20038;-71
2022/11/17 01:39:32;;;;;;;7.00;2.27;;;;;;;8.84;100.00;98529.13;5234262;28;20591;-73
2022/11/17 01:42:11;;;;;;;6.83;2.57;;;;;;;8.87;100.00;98528.84;5234833;28;20037;-70
2022/11/17 01:44:47;;;;;;;6.50;3.07;;;;;;;8.90;100.00;98510.28;5234108;28;20105;-71
2022/11/17 01:47:24;;;;;;;4.93;2.03;;;;;;;8.94;100.00;98510.84;5234741;28;20036;-70
2022/11/17 01:50:02;;;;;;;3.13;1.77;;;;;;;9.02;100.00;98500.53;5215191;28;20053;-70
2022/11/17 01:52:35;;;;;;;4.93;2.73;;;;;;;8.99;100.00;98510.44;5234160;28;20083;-70
2022/11/17 01:55:10;;;;;;;4.47;2.40;;;;;;;9.00;100.00;98514.69;5234151;28;20028;-72
2022/11/17 01:57:46;;;;;;;4.40;2.20;;;;;;;9.00;100.00;98512.06;5234122;28;20053;-71
2022/11/17 02:00:18;;;;;;;9.30;2.87;;;;;;;9.00;100.00;98512.06;5216359;28;20378;-71
2022/11/17 02:02:50;;;;;;;6.60;3.03;;;;;;;9.00;100.00;98510.28;5214983;28;20126;-72
2022/11/17 02:05:31;;;;;;;6.53;2.73;;;;;;;9.05;100.00;98515.09;5278397;22;20053;-72
2022/11/17 02:08:05;;;;;;;4.63;2.47;;;;;;;8.99;100.00;98505.22;5231834;28;20087;-71
2022/11/17 02:10:38;;;;;;;5.55;2.60;;;;;;;8.96;100.00;98495.84;5248428;28;20027;-70
2022/11/17 02:13:09;;;;;;;4.57;2.60;;;;;;;9.04;100.00;98497.78;5253060;28;20209;-72
2022/11/17 02:15:40;;;;;;;6.17;2.50;;;;;;;9.04;100.00;98508.22;5252701;28;20044;-70
2022/11/17 02:18:12;;;;;;;5.50;2.80;;;;;;;9.06;100.00;98499.28;5253069;28;20424;-70
2022/11/17 02:20:49;;;;;;;5.90;2.73;;;;;;;9.06;100.00;98485.38;5251323;28;20025;-70
2022/11/17 02:23:48;;;;;;;5.03;2.57;;;;;;;9.11;100.00;98477.16;5253026;28;20033;-71
2022/11/17 02:26:38;;;;;;;5.73;1.77;;;;;;;9.07;100.00;98467.00;5253453;28;20498;-69
2022/11/17 02:29:26;;;;;;;3.77;1.57;;;;;;;9.17;100.00;98466.97;5252756;28;20487;-71
2022/11/17 02:32:08;;;;;;;3.43;1.20;;;;;;;9.25;100.00;98452.38;5252278;28;20017;-70
2022/11/17 02:35:03;;;;;;;3.37;1.13;;;;;;;9.27;100.00;98460.88;5251325;28;20025;-71
2022/11/17 02:38:00;;;;;;;3.38;1.17;;;;;;;9.41;100.00;98456.97;5251718;28;20096;-71
2022/11/17 02:40:36;;;;;;;3.57;1.50;;;;;;;9.38;100.00;98445.03;5252352;28;20398;-70
2022/11/17 02:46:13;;;;;;;2.13;1.00;;;;;;;9.37;100.00;98435.56;5251806;28;20041;-72
2022/11/17 02:48:57;;;;;;;2.17;1.00;;;;;;;9.32;100.00;98438.59;5249277;28;20435;-71
2022/11/17 02:51:29;;;;;;;6.33;2.50;;;;;;;9.31;100.00;98425.66;5250871;28;20483;-70
2022/11/17 02:54:01;;;;;;;5.03;2.43;;;;;;;9.31;100.00;98429.13;5251469;28;20079;-71
2022/11/17 02:56:33;;;;;;;1.63;0.70;;;;;;;9.20;100.00;98419.66;5250514;28;20025;-72
2022/11/17 02:59:04;;;;;;;4.83;1.50;;;;;;;9.21;100.00;98412.66;5251396;28;20114;-71
2022/11/17 03:01:53;;;;;;;2.93;1.17;;;;;;;9.24;100.00;98411.53;5251105;28;20043;-71
2022/11/17 03:04:38;;;;;;;2.87;1.47;;;;;;;9.25;100.00;98418.41;5238151;28;20068;-70
2022/11/17 03:07:29;;;;;;;2.50;1.20;;;;;;;9.19;100.00;98407.59;5251069;28;20036;-70
2022/11/17 03:10:18;;;;;;;1.97;0.90;;;;;;;9.14;100.00;98394.13;5251088;28;20055;-70
2022/11/17 03:12:59;;;;;;;6.27;1.80;;;;;;;9.14;100.00;98399.34;5250420;28;20426;-70
2022/11/17 03:15:49;;;;;;;3.80;0.50;;;;;;;9.10;100.00;98387.53;5233091;28;20047;-70
2022/11/17 03:18:34;;;;;;;1.23;0.70;;;;;;;9.10;100.00;98384.94;5236572;28;20033;-71
2022/11/17 03:21:24;;;;;;;1.10;0.40;;;;;;;9.09;100.00;98391.13;5250575;28;20033;-71
2022/11/17 03:24:08;;;;;;;1.00;0.50;;;;;;;9.08;100.00;98392.06;5250528;28;20032;-71
2022/11/17 03:26:46;;;;;;;3.00;0.50;;;;;;;9.05;100.00;98374.09;5232499;28;20051;-71
2022/11/17 03:29:22;;;;;;;1.43;0.63;;;;;;;8.98;100.00;98362.56;5250806;28;20037;-71
2022/11/17 03:31:57;;;;;;;1.80;0.50;;;;;;;9.06;100.00;98370.50;5250968;28;20237;-72
2022/11/17 03:34:34;;;;;;;8.87;1.33;;;;;;;9.07;100.00;98367.78;5249973;28;20028;-72
2022/11/17 03:37:08;;;;;;;1.80;0.47;;;;;;;9.05;100.00;98368.88;5251274;28;20366;-70
2022/11/17 03:39:46;;;;;;;1.67;0.57;;;;;;;9.02;100.00;98354.34;5232530;28;20029;-69
2022/11/17 03:42:32;;;;;;;3.23;0.83;;;;;;;9.02;100.00;98353.50;5251235;28;21032;-71
2022/11/17 03:45:16;;;;;;;2.23;1.10;;;;;;;9.04;100.00;98357.59;5250973;28;20246;-71
2022/11/17 03:47:55;;;;;;;5.83;0.90;;;;;;;9.04;100.00;98348.97;5232086;28;20044;-69
2022/11/17 03:50:33;;;;;;;2.07;0.40;;;;;;;9.09;100.00;98357.19;5249760;28;20887;-70
2022/11/17 03:53:05;;;;;;;0.73;0.30;;;;;;;9.16;100.00;98355.63;5250570;28;20116;-70
2022/11/17 03:55:55;;;;;;;3.50;0.43;;;;;;;9.16;100.00;98345.16;5250938;28;20021;-69
2022/11/17 03:58:30;;;;;;;3.80;0.73;;;;;;;9.21;100.00;98342.16;5250243;28;20039;-70
2022/11/17 04:01:04;;;;;;;1.83;0.60;;;;;;;9.26;100.00;98334.69;5251165;28;20071;-69
2022/11/17 04:03:36;;;;;;;2.75;0.43;;;;;;;9.25;100.00;98340.06;5232033;28;20036;-70
2022/11/17 04:06:08;;;;;;;1.63;0.60;;;;;;;9.23;100.00;98344.63;5249492;28;20041;-69
2022/11/17 04:08:39;;;;;;;1.03;0.43;;;;;;;9.31;100.00;98334.25;5249616;28;20480;-69
2022/11/17 04:16:50;;;;;;;2.23;0.40;;;;;;;9.31;100.00;98322.03;5251156;28;20049;-70
2022/11/17 04:19:21;;;;;;;1.93;0.60;;;;;;;9.29;100.00;98331.78;5249190;28;20037;-70
2022/11/17 04:21:54;;;;;;;2.47;0.93;;;;;;;9.32;100.00;98341.09;5250746;28;20041;-69
2022/11/17 04:24:25;;;;;;;2.87;0.90;;;;;;;9.27;100.00;98335.50;5250765;28;20029;-70
2022/11/17 04:29:46;;;;;;;2.53;0.90;;;;;;;9.23;100.00;98339.38;5233421;28;20045;-70
2022/11/17 04:32:17;;;;;;;6.63;2.10;;;;;;;9.15;100.00;98345.31;5234049;28;20523;-71
2022/11/17 04:34:48;;;;;;;4.20;1.70;;;;;;;9.11;100.00;98344.78;5249108;28;20033;-70
2022/11/17 04:37:19;;;;;;;6.00;1.10;;;;;;;9.07;100.00;98325.16;5254860;28;20028;-70
2022/11/17 04:39:51;;;;;;;4.50;1.80;;;;;;;9.07;100.00;98330.41;5253832;28;20028;-70
2022/11/17 04:42:22;;;;;;;3.87;1.10;;;;;;;9.00;100.00;98300.59;5236337;28;20056;-70
2022/11/17 04:44:53;;;;;;;6.73;1.20;;;;;;;8.99;100.00;98312.03;5254383;28;20083;-69
2022/11/17 04:47:24;;;;;;;5.30;1.23;;;;;;;8.94;100.00;98302.81;5253758;28;20043;-70
2022/11/17 04:49:56;;;;;;;9.43;1.63;;;;;;;8.93;100.00;98300.38;5253574;28;20064;-70
2022/11/17 04:52:27;;;;;;;4.77;1.40;;;;;;;8.86;100.00;98297.50;5253505;28;20048;-70
2022/11/17 04:54:58;;;;;;;4.03;1.20;;;;;;;8.85;100.00;98295.03;5254758;28;20037;-71
2022/11/17 04:57:29;;;;;;;8.50;1.33;;;;;;;8.85;100.00;98290.63;5238201;28;20029;-71
2022/11/17 05:00:01;;;;;;;3.23;1.13;;;;;;;8.85;100.00;98290.63;5255683;28;20024;-71
2022/11/17 05:02:32;;;;;;;8.73;1.67;;;;;;;8.85;100.00;98290.63;5255387;28;20037;-72
2022/11/17 05:05:04;;;;;;;4.60;1.67;;;;;;;8.81;100.00;98289.28;5254344;28;20049;-71
2022/11/17 05:07:35;;;;;;;14.13;2.07;;;;;;;8.83;100.00;98290.78;5254872;28;20044;-71
2022/11/17 05:10:07;;;;;;;8.83;1.80;;;;;;;8.80;100.00;98285.03;5256181;28;20037;-71
2022/11/17 05:18:18;;;;;;;11.33;1.97;;;;;;;8.97;100.00;98287.84;5252515;28;20551;-70
2022/11/17 05:20:49;;;;;;;8.53;1.60;;;;;;;8.91;100.00;98292.69;5252136;28;20060;-70
2022/11/17 05:26:10;;;;;;;14.20;2.50;;;;;;;9.04;100.00;98333.31;5253332;28;20387;-71
2022/11/17 05:28:42;;;;;;;15.90;3.70;;;;;;;9.06;100.00;98333.94;5252943;28;20037;-71
2022/11/17 05:31:14;;;;;;;9.73;2.20;;;;;;;9.07;100.00;98330.41;5253475;28;20118;-71
2022/11/17 05:33:45;;;;;;;10.90;2.33;;;;;;;9.06;100.00;98333.94;5252589;28;20491;-71
2022/11/17 05:36:18;;;;;;;15.70;2.83;;;;;;;9.05;100.00;98338.38;5250679;28;20037;-72
2022/11/17 05:38:50;;;;;;;15.53;2.77;;;;;;;9.04;100.00;98331.50;5253438;28;20388;-71
2022/11/17 05:41:21;;;;;;;11.60;2.13;;;;;;;9.06;100.00;98342.63;5255201;28;20037;-71
2022/11/17 05:43:54;;;;;;;13.43;2.30;;;;;;;9.05;100.00;98340.16;5250192;28;20060;-72
2022/11/17 05:46:25;;;;;;;10.60;2.10;;;;;;;9.07;100.00;98340.84;5252940;28;20071;-72
2022/11/17 05:48:57;;;;;;;15.50;2.93;;;;;;;9.04;100.00;98346.34;5248310;28;20414;-71
2022/11/17 05:51:29;;;;;;;14.13;2.50;;;;;;;9.08;100.00;98343.31;5254192;28;20044;-71
2022/11/17 05:54:00;;;;;;;12.20;2.27;;;;;;;9.01;100.00;98331.78;5254751;28;20025;-74
2022/11/17 05:56:38;;;;;;;15.23;2.40;;;;;;;9.04;100.00;98339.31;5237169;28;20029;-71
2022/11/17 05:59:28;;;;;;;15.13;2.83;;;;;;;9.13;100.00;98352.50;5255203;28;20029;-71
2022/11/17 06:02:32;;;;;;;14.43;2.50;;;;;;;9.11;100.00;98354.44;5254076;28;20449;-71
2022/11/17 06:05:04;;;;;;;13.97;2.60;;;;;;;9.10;100.00;98355.38;5212939;28;20037;-71
2022/11/17 06:07:37;;;;;;;15.13;2.73;;;;;;;9.09;100.00;98354.56;5253450;28;20047;-72
2022/11/17 06:10:09;;;;;;;12.43;2.87;;;;;;;9.08;100.00;98356.34;5253550;28;20021;-72
2022/11/17 06:12:41;;;;;;;18.60;2.37;;;;;;;9.16;100.00;98362.66;5253201;28;20159;-71
2022/11/17 06:15:13;;;;;;;15.17;3.13;;;;;;;9.14;100.00;98360.19;5253154;28;20025;-71
2022/11/17 06:17:59;;;;;;;13.37;2.57;;;;;;;9.16;100.00;98371.28;5252944;28;20128;-71
2022/11/17 06:20:40;;;;;;;18.17;2.60;;;;;;;9.16;100.00;98366.06;5234822;28;20104;-71
2022/11/17 06:23:11;;;;;;;15.97;3.37;;;;;;;9.06;100.00;98360.06;5252932;28;20020;-71
2022/11/17 06:25:43;;;;;;;12.13;2.53;;;;;;;9.15;100.00;98384.50;5253838;28;20040;-71
2022/11/17 06:28:18;;;;;;;10.83;2.33;;;;;;;9.10;100.00;98382.31;5253380;28;20032;-71
2022/11/17 06:30:50;;;;;;;12.80;1.90;;;;;;;9.14;100.00;98382.84;5253246;28;20033;-70
2022/11/17 06:33:21;;;;;;;16.90;2.43;;;;;;;9.05;100.00;98379.31;5253429;28;20036;-71
2022/11/17 06:35:53;;;;;;;9.50;2.50;;;;;;;9.01;100.00;98385.78;5252796;28;20024;-71
2022/11/17 06:38:24;;;;;;;10.60;1.97;;;;;;;9.08;100.00;98392.06;5253376;28;20543;-71
2022/11/17 06:40:56;;;;;;;13.93;1.93;;;;;;;9.22;100.00;98390.78;5252433;28;20040;-71
2022/11/17 06:43:27;;;;;;;9.93;2.40;;;;;;;9.15;100.00;98390.53;5253735;28;20029;-71
2022/11/17 06:46:03;;;;;;;7.93;1.63;;;;;;;9.17;100.00;98398.22;5251912;28;20055;-72
2022/11/17 06:48:34;;;;;;;7.00;1.43;;;;;;;9.15;100.00;98394.94;5250207;28;20063;-72
2022/11/17 06:51:06;;;;;;;9.90;2.50;;;;;;;9.09;100.00;98412.03;5250585;28;20052;-72
2022/11/17 06:53:37;;;;;;;8.77;1.40;;;;;;;9.05;100.00;98410.66;5231958;28;20029;-72
2022/11/17 06:56:10;;;;;;;7.70;2.30;;;;;;;9.07;100.00;98408.72;5232058;28;20028;-71
2022/11/17 06:58:41;;;;;;;10.70;1.67;;;;;;;9.00;100.00;98397.19;5245085;28;20028;-72
2022/11/17 07:01:14;;;;;;;9.10;2.20;;;;;;;9.06;100.00;98412.28;5251513;28;20490;-71
2022/11/17 07:03:45;;;;;;;8.13;1.17;;;;;;;9.03;100.00;98410.78;5253366;28;20075;-71
2022/11/17 07:06:17;;;;;;;10.50;2.27;;;;;;;9.01;100.00;98415.31;5249268;28;20513;-72
2022/11/17 07:08:49;;;;;;;9.43;1.40;;;;;;;9.05;100.00;98416.69;5250609;28;20037;-72
2022/11/17 07:11:21;;;;;;;11.00;2.20;;;;;;;8.97;100.00;98424.44;5251987;28;20533;-72
2022/11/17 07:13:52;;;;;;;8.43;2.13;;;;;;;9.08;100.00;98426.03;5250452;28;20515;-72
2022/11/17 07:16:23;;;;;;;9.93;2.03;;;;;;;9.03;100.00;98429.06;5250154;28;20281;-71
2022/11/17 07:18:57;;;;;;;8.23;1.70;;;;;;;8.91;100.00;98420.59;5247784;28;20020;-73
2022/11/17 07:21:29;;;;;;;7.18;1.52;;;;;;;8.98;100.00;98431.28;5243933;28;20108;-73
2022/11/17 07:24:01;;;;;;;8.33;1.30;;;;;;;9.02;100.00;98430.03;5236227;28;20031;-72
2022/11/17 07:26:32;;;;;;;12.53;2.80;;;;;;;8.91;100.00;98436.25;5244371;28;20033;-73
2022/11/17 07:29:04;;;;;;;7.83;1.10;;;;;;;8.99;100.00;98443.34;5246838;28;20063;-73
2022/11/17 07:31:38;;;;;;;12.80;1.70;;;;;;;8.95;100.00;98445.44;5244554;28;20048;-72
2022/11/17 07:34:09;;;;;;;8.75;1.70;;;;;;;8.85;100.00;98444.63;5252827;28;20438;-73
2022/11/17 07:36:40;;;;;;;8.23;1.80;;;;;;;8.91;100.00;98451.91;5247529;28;20021;-73
2022/11/17 07:39:12;;;;;;;4.63;1.40;;;;;;;8.95;100.00;98449.84;5248706;28;20033;-72
2022/11/17 07:41:43;;;;;;;7.70;1.77;;;;;;;8.94;100.00;98453.41;5245855;28;20033;-73
2022/11/17 07:44:15;;;;;;;4.43;1.03;;;;;;;8.87;100.00;98450.53;5230279;28;20425;-72
2022/11/17 07:46:46;;;;;;;8.60;1.93;;;;;;;8.89;100.00;98446.00;5248667;28;20032;-72
2022/11/17 07:49:17;;;;;;;9.03;1.93;;;;;;;8.94;100.00;98456.00;5226329;28;20033;-74
2022/11/17 07:51:49;;;;;;;6.10;1.03;;;;;;;8.82;100.00;98443.13;5245338;28;20082;-72
2022/11/17 07:54:20;;;;;;;3.43;1.23;;;;;;;8.95;100.00;98463.69;5251765;28;20120;-73
2022/11/17 07:56:51;;;;;;;2.90;0.90;;;;;;;8.92;100.00;98458.75;5250781;28;20553;-73
2022/11/17 07:59:22;;;;;;;5.70;1.20;;;;;;;8.91;100.00;98466.75;5249375;28;20033;-73
2022/11/17 08:01:54;;;;;;;5.77;1.30;;;;;;;8.93;100.00;98470.88;5235481;28;20115;-73
2022/11/17 08:04:25;;;;;;;6.63;1.30;;;;;;;8.97;100.00;98481.03;5235030;28;20052;-74
2022/11/17 08:06:56;;;;;;;6.70;1.40;;;;;;;8.93;100.00;98476.09;5252913;28;20033;-73
2022/11/17 08:09:27;;;;;;;7.80;1.00;;;;;;;8.87;100.00;98487.06;5253847;28;20322;-73
2022/11/17 08:11:59;;;;;;;4.97;1.27;;;;;;;8.87;100.00;98489.69;5250307;28;20025;-75
2022/11/17 08:14:30;;;;;;;3.63;0.93;;;;;;;8.87;100.00;98492.28;5253656;28;20169;-74
2022/11/17 08:17:01;;;;;;;4.43;1.37;;;;;;;8.91;100.00;98485.00;5235395;28;20025;-74
2022/11/17 08:19:32;;;;;;;6.67;1.73;;;;;;;8.90;100.00;98496.44;5251564;28;20025;-74
2022/11/17 08:22:04;;;;;;;6.53;1.20;;;;;;;8.91;100.00;98482.41;5249939;28;20049;-74
2022/11/17 08:24:35;;;;;;;5.13;1.50;;;;;;;8.94;100.00;98498.63;5252551;28;20475;-74
2022/11/17 08:27:06;;;;;;;5.20;1.50;;;;;;;8.94;100.00;98514.28;5253564;28;20029;-74
2022/11/17 08:29:38;;;;;;;7.40;1.53;;;;;;;8.80;100.00;98502.47;5252832;28;20095;-75
2022/11/17 08:32:09;;;;;;;7.53;1.43;;;;;;;8.86;100.00;98516.75;5231679;28;20025;-74
2022/11/17 08:34:40;;;;;;;9.47;1.73;;;;;;;8.80;100.00;98519.91;5251997;28;20036;-75
2022/11/17 08:37:11;;;;;;;5.57;1.23;;;;;;;8.83;100.00;98522.28;5252764;28;20040;-74
2022/11/17 08:39:43;;;;;;;5.57;1.23;;;;;;;8.72;100.00;98502.34;5253222;28;20033;-75
2022/11/17 08:42:15;;;;;;;6.37;1.47;;;;;;;8.81;100.00;98516.34;5249743;28;20027;-74
2022/11/17 08:44:46;;;;;;;6.40;1.43;;;;;;;8.82;100.00;98521.44;5251179;28;20075;-74
2022/11/17 08:47:17;;;;;;;10.10;1.27;;;;;;;8.77;100.00;98520.19;5253732;28;20021;-74
2022/11/17 08:49:49;;;;;;;5.77;2.10;;;;;;;8.83;100.00;98517.03;5251595;28;20044;-74
2022/11/17 08:52:21;;;;;;;5.20;1.37;;;;;;;8.78;100.00;98516.63;5249654;28;20071;-74
2022/11/17 08:54:53;;;;;;;4.90;1.20;;;;;;;8.89;100.00;98533.91;5251948;28;20025;-74
2022/11/17 08:57:24;;;;;;;6.63;1.00;;;;;;;8.88;100.00;98529.69;5253281;28;20406;-74
2022/11/17 08:59:55;;;;;;;8.37;1.33;;;;;;;8.85;100.00;98522.94;5252292;28;20021;-74
2022/11/17 09:02:27;;;;;;;4.13;1.30;;;;;;;8.83;100.00;98527.50;5249843;28;20029;-75
2022/11/17 09:04:58;;;;;;;4.80;1.60;;;;;;;8.78;100.00;98522.66;5251366;28;20519;-74
2022/11/17 09:07:33;;;;;;;5.60;1.30;;;;;;;8.84;100.00;98544.78;5252032;28;20051;-74
2022/11/17 09:10:05;;;;;;;5.97;1.27;;;;;;;8.83;100.00;98543.16;5252442;28;20115;-74
2022/11/17 09:12:37;;;;;;;5.73;1.57;;;;;;;8.86;100.00;98544.66;5248719;28;20051;-75
2022/11/17 09:15:09;;;;;;;5.70;1.37;;;;;;;8.83;100.00;98551.78;5252535;28;20191;-74
2022/11/17 09:17:42;;;;;;;3.73;1.40;;;;;;;8.90;100.00;98551.25;5251849;28;20029;-74
2022/11/17 09:20:14;;;;;;;4.27;1.13;;;;;;;8.83;100.00;98545.75;5251599;28;20387;-75
2022/11/17 09:22:46;;;;;;;5.50;1.70;;;;;;;8.87;100.00;98543.66;5230398;28;20430;-75
2022/11/17 09:25:17;;;;;;;5.70;1.00;;;;;;;8.83;100.00;98561.41;5252059;28;20526;-75
2022/11/17 09:27:49;;;;;;;5.10;1.47;;;;;;;8.91;100.00;98561.56;5252095;28;20028;-75
2022/11/17 09:30:21;;;;;;;6.17;1.20;;;;;;;8.92;100.00;98546.72;5251585;28;20028;-74
2022/11/17 09:32:52;;;;;;;7.90;1.77;;;;;;;8.85;100.00;98562.09;5248732;28;20029;-75
2022/11/17 09:35:23;;;;;;;5.97;1.40;;;;;;;8.92;100.00;98565.00;5251452;28;20032;-74
2022/11/17 09:37:59;;;;;;;6.63;1.83;;;;;;;8.97;100.00;98569.78;5251949;28;20032;-74
2022/11/17 09:40:32;;;;;;;7.67;1.97;;;;;;;9.10;100.00;98572.94;5233476;28;20112;-74
2022/11/17 09:43:14;;;;;;;9.90;1.73;;;;;;;9.17;100.00;98583.66;5231010;28;20399;-74
2022/11/17 09:45:47;;;;;;;4.90;1.63;;;;;;;9.25;100.00;98582.97;5238973;28;20095;-74
2022/11/17 09:48:31;;;;;;;8.90;1.40;;;;;;;9.28;100.00;98578.28;5235964;28;20087;-74
2022/11/17 09:51:05;;;;;;;4.18;1.33;;;;;;;9.37;100.00;98583.63;5252724;28;20064;-74
2022/11/17 09:54:14;;;;;;;3.80;1.00;;;;;;;9.42;100.00;98589.25;5251579;28;20056;-74
2022/11/17 09:56:46;;;;;;;5.67;1.17;;;;;;;9.33;100.00;98583.09;5195898;28;20037;-74
2022/11/17 09:59:20;;;;;;;4.13;0.97;;;;;;;9.31;100.00;98595.47;5248167;28;20044;-74
2022/11/17 10:01:51;;;;;;;6.87;1.53;;;;;;;9.41;100.00;98592.81;5248899;28;20025;-74
2022/11/17 10:04:27;;;;;;;8.80;1.20;;;;;;;9.32;100.00;98594.47;5249661;28;20372;-74
2022/11/17 10:06:58;;;;;;;3.93;1.37;;;;;;;9.43;100.00;98601.34;5252190;28;20033;-74
2022/11/17 10:09:42;;;;;;;3.30;1.07;;;;;;;9.44;100.00;98609.03;5255628;28;20029;-74
2022/11/17 10:12:19;;;;;;;5.57;1.20;;;;;;;9.45;100.00;98615.09;5248970;28;20454;-73
2022/11/17 10:14:51;;;;;;;7.70;1.73;;;;;;;9.39;100.00;98603.41;5250236;28;20021;-73
2022/11/17 10:17:22;;;;;;;5.43;1.10;;;;;;;9.46;100.00;98615.94;5251440;28;20048;-73
2022/11/17 10:19:53;;;;;;;3.23;1.27;;;;;;;9.58;100.00;98629.66;5249723;28;20541;-74
2022/11/17 10:22:35;;;;;;;5.43;1.03;;;;;;;9.71;100.00;98619.72;5246590;28;20507;-73
2022/11/17 10:25:20;;;;;;;7.03;1.23;;;;;;;9.69;100.00;98616.44;5250199;28;20024;-73
2022/11/17 10:27:52;;;;;;;8.30;1.30;;;;;;;9.66;100.00;98612.31;5250575;28;20028;-73
2022/11/17 10:30:24;;;;;;;6.73;1.13;;;;;;;9.74;100.00;98634.31;5250655;28;20057;-73
2022/11/17 10:32:57;;;;;;;5.73;1.43;;;;;;;9.81;100.00;98632.75;5248105;28;20032;-73
2022/11/17 10:35:32;;;;;;;4.33;2.00;;;;;;;9.78;100.00;98633.88;5249346;28;20025;-73
2022/11/17 10:38:07;;;;;;;5.17;1.30;;;;;;;9.93;100.00;98644.69;5251399;28;20287;-73
2022/11/17 10:40:38;;;;;;;5.03;0.70;;;;;;;9.91;100.00;98651.84;5231970;28;20025;-73
2022/11/17 10:43:12;;;;;;;3.17;0.80;;;;;;;9.98;100.00;98641.69;5229889;28;20044;-73
2022/11/17 10:45:51;;;;;;;5.07;0.90;;;;;;;9.98;100.00;98651.31;5230427;28;20037;-73
2022/11/17 10:48:29;;;;;;;7.53;0.80;;;;;;;9.93;100.00;98644.69;5249704;28;20032;-73
2022/11/17 10:51:08;;;;;;;2.30;0.80;;;;;;;9.96;100.00;98666.31;5250353;28;20112;-72
2022/11/17 10:53:42;;;;;;;6.40;1.17;;;;;;;9.92;100.00;98663.16;5249839;28;20037;-72
2022/11/17 10:56:18;;;;;;;3.87;0.93;;;;;;;9.86;100.00;98656.69;5251221;28;20021;-73
2022/11/17 10:59:15;;;;;;;3.37;1.00;;;;;;;9.93;100.00;98652.56;5250221;28;20268;-73
2022/11/17 11:01:49;;;;;;;7.17;1.67;;;;;;;9.90;100.00;98660.69;5243928;28;20032;-72
2022/11/17 11:04:30;;;;;;;5.32;1.58;;;;;;;9.85;100.00;98662.91;5248529;28;20580;-73
2022/11/17 11:07:12;;;;;;;7.27;2.57;;;;;;;9.86;100.00;98664.53;5249769;28;20063;-73
2022/11/17 11:09:52;;;;;;;4.20;0.90;;;;;;;9.84;100.00;98671.72;5237580;28;20569;-73
2022/11/17 11:12:34;;;;;;;5.93;1.27;;;;;;;9.85;100.00;98662.91;5247593;28;20109;-72
2022/11/17 11:15:12;;;;;;;8.33;2.13;;;;;;;9.85;100.00;98667.28;5249740;28;20025;-72
2022/11/17 11:17:44;;;;;;;4.07;1.20;;;;;;;9.79;100.00;98666.88;5227242;28;20029;-72
2022/11/17 11:20:19;;;;;;;6.07;1.63;;;;;;;9.82;100.00;98673.66;5249541;28;20031;-72
2022/11/17 11:23:13;;;;;;;5.33;1.17;;;;;;;9.88;100.00;98675.69;5228418;28;20029;-72
2022/11/17 11:26:05;;;;;;;5.60;1.03;;;;;;;9.84;100.00;98679.56;5226536;28;20043;-73
2022/11/17 11:29:05;;;;;;;5.33;1.30;;;;;;;9.86;100.00;98680.22;5247774;28;20036;-72
2022/11/17 11:31:48;;;;;;;4.50;1.10;;;;;;;9.82;100.00;98680.66;5202595;28;20434;-72
2022/11/17 11:34:54;;;;;;;5.00;1.03;;;;;;;9.84;100.00;98692.63;5246922;28;20369;-72
2022/11/17 11:37:54;;;;;;;2.45;1.13;;;;;;;9.77;100.00;98688.94;5248783;28;20104;-72
2022/11/17 11:40:30;;;;;;;2.53;1.03;;;;;;;9.80;100.00;98693.88;5248617;28;20021;-72
2022/11/17 11:43:30;;;;;;;6.33;1.27;;;;;;;9.84;100.00;98703.09;5247095;28;20033;-72
2022/11/17 11:46:17;;;;;;;4.27;1.37;;;;;;;9.76;100.00;98684.66;5214328;28;20033;-72
2022/11/17 11:48:53;;;;;;;11.03;1.77;;;;;;;9.71;100.00;98697.31;5250697;28;20040;-72
2022/11/17 11:51:28;;;;;;;3.80;0.90;;;;;;;9.77;100.00;98702.00;5249948;28;20060;-71
2022/11/17 11:54:13;;;;;;;10.13;1.77;;;;;;;9.83;100.00;98711.88;5247040;28;20877;-73
2022/11/17 11:56:47;;;;;;;4.67;0.93;;;;;;;9.79;100.00;98710.53;5243686;28;20108;-72
2022/11/17 11:59:32;;;;;;;4.33;1.43;;;;;;;9.88;100.00;98708.88;5252026;28;20464;-72
2022/11/17 12:02:09;;;;;;;3.60;0.90;;;;;;;9.84;100.00;98705.72;5250313;28;20410;-72
2022/11/17 12:04:53;;;;;;;4.63;1.47;;;;;;;9.81;100.00;98708.56;5244711;28;20054;-72
2022/11/17 12:08:02;;;;;;;4.77;1.00;;;;;;;9.82;100.00;98705.03;5230707;28;20096;-74
2022/11/17 12:10:46;;;;;;;5.90;1.33;;;;;;;9.78;100.00;98714.09;5217204;28;20052;-74
2022/11/17 12:13:21;;;;;;;6.93;1.60;;;;;;;9.83;100.00;98706.66;5228035;28;20124;-72
2022/11/17 12:16:26;;;;;;;5.20;0.90;;;;;;;9.87;100.00;98718.50;5229026;28;20026;-73
2022/11/17 12:18:58;;;;;;;6.68;1.30;;;;;;;9.77;100.00;98702.00;5228480;28;20396;-73
2022/11/17 12:21:29;;;;;;;4.53;1.77;;;;;;;9.87;100.00;98725.50;5229853;28;20061;-71
2022/11/17 12:24:19;;;;;;;4.43;0.83;;;;;;;9.88;100.00;98714.91;5229766;28;20025;-71
2022/11/17 12:26:51;;;;;;;4.37;1.17;;;;;;;9.78;100.00;98716.72;5228234;28;20080;-73
2022/11/17 12:29:25;;;;;;;3.13;1.07;;;;;;;9.89;100.00;98729.66;5229973;28;20432;-75
2022/11/17 12:31:58;;;;;;;;;;;;;;;10.00;100.00;98731.25;5229200;28;20041;-74
2022/11/17 12:34:36;;;;;;;3.57;1.17;;;;;;;9.85;100.00;98725.66;5230067;28;19939;-73
2022/11/17 12:37:13;;;;;;;7.17;1.33;;;;;;;9.96;100.00;98734.31;5227624;28;20021;-73
2022/11/17 12:40:00;;;;;;;4.80;1.20;;;;;;;9.96;100.00;98737.75;5227863;28;20033;-72
2022/11/17 12:42:33;;;;;;;5.33;1.40;;;;;;;9.91;100.00;98732.91;5226659;28;20053;-73